Time;durP1;ratioP1;P1;durP2;ratioP2;P2;SDS_P1;SDS_P2;PMS_P1;PMS_P2;Temp;Humidity;BMP_temperature;BMP_pressure;BME280_temperature;BME280_humidity;BME280_pressure;Samples;Min_cycle;Max_cycle;Signal;HPM_P1;HPM_P2
2023/01/30 00:03:04;;;;;;;83.88;42.80;;;;;;;0.97;100.00;100131.81;10375706;28;20068;-76
2023/01/30 00:08:05;;;;;;;95.28;44.15;;;;;;;0.18;100.00;99986.78;10415644;28;20583;-76
2023/01/30 00:13:06;;;;;;;91.53;41.03;;;;;;;1.17;100.00;100132.09;10399831;28;20088;-76
2023/01/30 00:18:08;;;;;;;152.40;40.75;;;;;;;1.18;100.00;100149.50;10387333;28;20037;-76
2023/01/30 00:23:08;;;;;;;127.57;43.38;;;;;;;0.82;100.00;100097.13;10417054;28;20052;-77
2023/01/30 00:28:09;;;;;;;169.38;42.75;;;;;;;0.97;100.00;100141.44;10415299;28;20094;-76
2023/01/30 00:33:10;;;;;;;131.30;42.20;;;;;;;0.38;100.00;100061.13;10415850;28;20037;-76
2023/01/30 00:38:11;;;;;;;91.35;39.83;;;;;;;0.01;100.00;100008.06;10378848;28;20044;-76
2023/01/30 00:48:35;;;;;;;161.90;38.85;;;;;;;0.86;100.00;100158.72;10375362;28;20062;-76
2023/01/30 00:53:36;;;;;;;168.38;39.15;;;;;;;0.32;100.00;100082.47;10375004;28;20176;-77
2023/01/30 00:58:36;;;;;;;100.95;37.60;;;;;;;0.58;100.00;100149.41;10374164;28;20048;-77
2023/01/30 01:03:37;;;;;;;199.98;38.38;;;;;;;0.70;100.00;100163.41;10373866;28;20478;-77
2023/01/30 01:08:38;;;;;;;101.95;36.80;;;;;;;0.72;100.00;100158.91;10373765;28;20045;-77
2023/01/30 01:13:39;;;;;;;145.85;37.92;;;;;;;0.77;100.00;100164.63;10374161;28;20088;-77
2023/01/30 01:18:39;;;;;;;85.40;35.90;;;;;;;0.73;100.00;100157.94;10374758;28;20049;-77
2023/01/30 01:23:40;;;;;;;104.45;37.15;;;;;;;0.70;100.00;100144.25;10374463;28;20046;-77
2023/01/30 01:28:41;;;;;;;186.57;40.25;;;;;;;0.81;100.00;100166.09;10373880;28;20367;-77
2023/01/30 01:33:42;;;;;;;155.77;38.88;;;;;;;0.85;100.00;100177.16;10373547;28;20496;-77
2023/01/30 01:38:43;;;;;;;267.30;40.75;;;;;;;0.80;100.00;100164.41;10374192;28;20521;-76
2023/01/30 01:44:16;;;;;;;274.73;43.67;;;;;;;0.94;100.00;100175.66;10372799;28;20045;-77
2023/01/30 01:49:23;;;;;;;371.48;47.28;;;;;;;0.56;100.00;100124.31;10382805;28;20141;-76
2023/01/30 01:54:38;;;;;;;185.40;43.80;;;;;;;0.93;100.00;100180.06;10373879;28;20069;-77
2023/01/30 01:59:42;;;;;;;;;;;;;;;1.09;100.00;100182.41;10373759;28;20042;-77
2023/01/30 02:05:01;;;;;;;132.38;42.10;;;;;;;0.85;100.00;100154.44;10373580;28;19924;-77
2023/01/30 02:10:02;;;;;;;191.88;43.15;;;;;;;0.93;100.00;100151.28;10372841;28;20129;-75
2023/01/30 02:15:03;;;;;;;295.42;46.40;;;;;;;1.15;100.00;100176.72;10372104;28;20034;-76
2023/01/30 02:20:07;;;;;;;127.07;45.53;;;;;;;1.27;100.00;100180.22;10372144;28;20551;-76
2023/01/30 02:25:08;;;;;;;150.70;47.90;;;;;;;1.30;100.00;100186.06;10373018;28;20065;-76
2023/01/30 02:30:24;;;;;;;107.75;44.03;;;;;;;1.04;100.00;100124.34;10372500;28;20308;-76
2023/01/30 02:35:43;;;;;;;89.18;45.40;;;;;;;1.48;100.00;100188.28;10373688;28;20517;-77
2023/01/30 02:40:59;;;;;;;85.75;44.35;;;;;;;1.49;100.00;100192.56;10385613;28;20041;-76
2023/01/30 02:46:21;;;;;;;92.47;46.33;;;;;;;1.09;100.00;100117.81;10384242;28;20131;-76
2023/01/30 02:51:28;;;;;;;94.75;47.17;;;;;;;1.45;100.00;100184.09;10385992;28;20053;-76
2023/01/30 02:56:28;;;;;;;89.18;44.42;;;;;;;1.06;100.00;100125.06;10420204;28;20033;-77
2023/01/30 03:01:49;;;;;;;86.00;41.20;;;;;;;1.62;100.00;100190.72;10417845;28;20038;-77
2023/01/30 03:06:53;;;;;;;82.85;41.80;;;;;;;1.55;100.00;100190.31;10404602;28;20049;-77
2023/01/30 03:12:00;;;;;;;97.60;45.97;;;;;;;1.40;100.00;100169.69;10419838;28;20049;-77
2023/01/30 03:17:06;;;;;;;97.22;46.35;;;;;;;1.52;100.00;100197.56;10418226;28;20033;-76
2023/01/30 03:22:06;;;;;;;95.72;46.13;;;;;;;1.34;100.00;100166.56;10419022;28;20559;-75
2023/01/30 03:27:11;;;;;;;103.00;48.20;;;;;;;1.54;100.00;100198.28;10452749;28;20056;-78
2023/01/30 03:32:11;;;;;;;97.25;44.58;;;;;;;1.46;100.00;100191.00;10460137;28;20120;-75
2023/01/30 03:37:12;;;;;;;103.82;47.00;;;;;;;1.52;100.00;100211.47;10458430;28;20170;-74
2023/01/30 03:42:13;;;;;;;96.13;45.45;;;;;;;1.07;100.00;100131.97;10459240;28;20036;-77
2023/01/30 03:47:14;;;;;;;92.32;44.20;;;;;;;1.64;100.00;100230.69;10439308;28;20057;-76
2023/01/30 03:52:15;;;;;;;104.78;47.75;;;;;;;1.70;100.00;100235.47;10407900;28;20044;-74
2023/01/30 03:57:15;;;;;;;108.50;48.55;;;;;;;1.48;100.00;100206.59;10415156;28;20424;-74
2023/01/30 04:02:21;;;;;;;94.88;43.17;;;;;;;1.31;100.00;100187.72;10415093;28;20084;-78
2023/01/30 04:07:22;;;;;;;107.32;47.85;;;;;;;1.08;100.00;100151.97;10414981;28;20053;-74
2023/01/30 04:12:23;;;;;;;104.60;45.63;;;;;;;1.22;100.00;100192.78;10415697;28;20044;-76
2023/01/30 04:17:24;;;;;;;85.00;42.08;;;;;;;1.12;100.00;100200.50;10415235;28;20037;-74
2023/01/30 04:22:25;;;;;;;82.55;42.67;;;;;;;1.16;100.00;100227.25;10414339;28;20087;-77
2023/01/30 04:27:25;;;;;;;83.70;41.20;;;;;;;1.14;100.00;100246.53;10414912;28;20076;-73
2023/01/30 04:32:26;;;;;;;84.10;40.90;;;;;;;1.25;100.00;100303.31;10414719;28;20136;-74
2023/01/30 04:37:27;;;;;;;76.55;39.65;;;;;;;0.98;100.00;100259.00;10413434;28;20037;-76
2023/01/30 04:42:28;;;;;;;79.05;38.28;;;;;;;0.42;100.00;100164.53;10414025;28;20044;-74
2023/01/30 04:47:29;;;;;;;113.25;38.58;;;;;;;1.34;100.00;100320.13;10412222;28;20065;-74
2023/01/30 04:52:30;;;;;;;75.38;39.72;;;;;;;1.35;100.00;100327.06;10415928;28;20497;-76
2023/01/30 04:57:30;;;;;;;64.00;34.88;;;;;;;0.78;100.00;100215.97;10416683;28;20112;-75
2023/01/30 05:02:31;;;;;;;69.78;37.60;;;;;;;1.50;100.00;100338.22;10413806;28;20044;-75
2023/01/30 05:07:32;;;;;;;83.50;40.17;;;;;;;1.13;100.00;100280.63;10413937;28;20091;-75
2023/01/30 05:12:33;;;;;;;68.10;36.55;;;;;;;1.22;100.00;100307.94;10414507;28;20037;-75
2023/01/30 05:17:34;;;;;;;66.55;37.20;;;;;;;1.53;100.00;100359.78;10414542;28;20038;-75
2023/01/30 05:22:35;;;;;;;70.30;36.03;;;;;;;1.44;100.00;100363.06;10414651;28;20103;-74
2023/01/30 05:27:36;;;;;;;66.03;35.13;;;;;;;1.11;100.00;100322.63;10413926;28;20142;-76
2023/01/30 05:32:36;;;;;;;60.65;33.58;;;;;;;0.49;100.00;100219.81;10413740;28;20095;-76
2023/01/30 05:37:38;;;;;;;59.40;34.85;;;;;;;1.43;100.00;100350.88;10412533;28;20044;-76
2023/01/30 05:42:39;;;;;;;54.13;31.73;;;;;;;1.24;100.00;100322.59;10412880;28;20091;-76
2023/01/30 05:47:39;;;;;;;61.78;32.90;;;;;;;1.57;100.00;100376.09;10413020;28;20065;-76
2023/01/30 05:52:40;;;;;;;62.75;35.50;;;;;;;1.55;100.00;100367.50;10413750;28;20072;-74
2023/01/30 05:57:42;;;;;;;56.85;32.00;;;;;;;1.68;100.00;100380.59;10413779;28;20118;-75
2023/01/30 06:02:43;;;;;;;55.95;33.88;;;;;;;1.69;100.00;100382.25;10413919;28;20087;-75
2023/01/30 06:07:44;;;;;;;61.80;34.55;;;;;;;1.57;100.00;100350.75;10412656;28;20049;-75
2023/01/30 06:12:44;;;;;;;53.78;31.27;;;;;;;1.36;100.00;100299.94;10412264;28;20042;-75
2023/01/30 06:17:45;;;;;;;57.25;33.95;;;;;;;1.64;100.00;100353.75;10413466;28;20516;-75
2023/01/30 06:22:47;;;;;;;53.00;32.63;;;;;;;1.92;100.00;100389.28;10412959;28;20406;-75
2023/01/30 06:27:48;;;;;;;55.08;31.42;;;;;;;1.94;100.00;100384.75;10412918;28;20045;-75
2023/01/30 06:32:50;;;;;;;46.55;30.77;;;;;;;1.76;100.00;100337.16;10412978;28;20033;-75
2023/01/30 06:37:51;;;;;;;45.55;29.88;;;;;;;2.15;100.00;100386.75;10413023;28;20037;-75
2023/01/30 06:42:51;;;;;;;48.33;28.25;;;;;;;1.83;100.00;100312.19;10412410;28;20041;-75
2023/01/30 06:47:54;;;;;;;38.33;24.70;;;;;;;2.02;99.09;100329.19;10412788;28;20053;-75
2023/01/30 06:52:55;;;;;;;36.38;24.50;;;;;;;2.39;98.73;100384.94;10412489;28;20038;-75
2023/01/30 06:58:10;;;;;;;32.83;23.83;;;;;;;2.71;97.11;100406.13;10412422;28;20045;-75
2023/01/30 07:03:13;;;;;;;33.47;23.38;;;;;;;2.87;97.86;100400.56;10412240;28;20033;-75
2023/01/30 07:08:15;;;;;;;33.50;21.10;;;;;;;2.94;97.40;100398.31;10413255;28;20049;-75
2023/01/30 07:13:15;;;;;;;32.28;22.67;;;;;;;2.39;96.35;100279.22;10411430;28;20041;-75
2023/01/30 07:18:16;;;;;;;36.28;22.30;;;;;;;2.77;96.19;100341.03;10411823;28;20103;-75
2023/01/30 07:23:17;;;;;;;36.40;23.67;;;;;;;2.91;95.75;100341.63;10415414;28;20037;-75
2023/01/30 07:28:18;;;;;;;38.58;22.92;;;;;;;3.14;95.67;100386.25;10418497;28;20041;-75
2023/01/30 07:33:19;;;;;;;47.67;25.88;;;;;;;3.25;95.32;100396.75;10418549;28;20418;-75
2023/01/30 07:38:20;;;;;;;39.17;24.05;;;;;;;3.07;94.50;100380.63;10418813;28;20533;-75
2023/01/30 07:43:21;;;;;;;37.58;24.67;;;;;;;3.28;94.59;100382.56;10418574;28;20136;-75
2023/01/30 07:48:22;;;;;;;34.75;22.95;;;;;;;3.22;94.52;100389.13;10416437;28;20057;-75
2023/01/30 07:53:22;;;;;;;36.33;22.83;;;;;;;3.38;94.08;100376.47;10418414;28;20048;-75
2023/01/30 07:58:23;;;;;;;35.47;23.48;;;;;;;3.98;93.15;100371.69;10418049;28;20034;-75
2023/01/30 08:03:24;;;;;;;35.80;22.63;;;;;;;4.44;91.02;100372.31;10417209;28;20064;-75
2023/01/30 08:08:25;;;;;;;32.00;22.00;;;;;;;4.67;90.31;100342.28;10417725;28;20053;-75
2023/01/30 08:13:25;;;;;;;34.45;22.50;;;;;;;4.75;89.95;100294.25;10418254;28;20050;-75
2023/01/30 08:18:30;;;;;;;31.95;21.38;;;;;;;5.25;87.05;100316.19;10417247;28;20116;-75
2023/01/30 08:23:33;;;;;;;35.45;22.20;;;;;;;5.76;87.04;100358.31;10417605;28;20132;-75
2023/01/30 08:28:33;;;;;;;36.58;22.67;;;;;;;5.84;86.91;100326.84;10416868;28;20049;-75
2023/01/30 08:33:34;;;;;;;33.53;21.75;;;;;;;6.15;85.63;100333.66;10415299;28;20459;-75
2023/01/30 08:38:35;;;;;;;33.42;20.75;;;;;;;6.26;84.44;100342.41;10416099;28;20116;-75
2023/01/30 08:43:36;;;;;;;30.25;20.65;;;;;;;6.20;83.64;100342.97;10415609;28;20042;-75
2023/01/30 08:48:39;;;;;;;30.52;21.95;;;;;;;6.09;83.03;100267.47;10416377;28;20061;-75
2023/01/30 08:53:40;;;;;;;37.03;22.98;;;;;;;6.75;82.79;100309.66;10415100;28;20094;-75
2023/01/30 08:58:42;;;;;;;36.50;22.40;;;;;;;7.11;81.44;100323.00;10415383;28;20041;-75
2023/01/30 09:03:43;;;;;;;37.72;25.50;;;;;;;6.74;79.78;100249.09;10415443;28;20045;-75
2023/01/30 09:08:43;;;;;;;40.17;25.20;;;;;;;6.22;80.19;100188.84;10414606;28;20041;-75
2023/01/30 09:13:44;;;;;;;40.00;25.45;;;;;;;6.97;79.97;100310.28;10414515;28;20068;-75
2023/01/30 09:18:45;;;;;;;41.95;24.88;;;;;;;6.98;79.51;100245.94;10415108;28;20037;-75
2023/01/30 09:23:46;;;;;;;42.45;26.67;;;;;;;6.52;78.90;100184.28;10414054;28;20050;-75
2023/01/30 09:28:46;;;;;;;41.63;25.30;;;;;;;7.13;78.13;100252.38;10413604;28;20053;-75
2023/01/30 09:33:47;;;;;;;39.15;25.85;;;;;;;6.70;77.37;100119.22;10414465;28;20048;-75
2023/01/30 09:38:48;;;;;;;34.35;23.20;;;;;;;7.53;76.91;100204.38;10413616;28;20041;-75
2023/01/30 09:44:29;;;;;;;40.63;24.60;;;;;;;8.06;73.48;100257.38;10413897;28;20421;-75
2023/01/30 09:49:36;;;;;;;37.38;23.60;;;;;;;7.82;74.10;100231.56;10413226;28;20502;-75
2023/01/30 09:54:41;;;;;;;37.17;23.67;;;;;;;7.58;75.08;100213.69;10413034;28;20420;-75
2023/01/30 09:59:46;;;;;;;37.83;24.23;;;;;;;7.34;73.93;100196.63;10413330;28;20128;-75
2023/01/30 10:04:48;;;;;;;37.05;24.27;;;;;;;7.07;75.92;100164.00;10412834;28;20523;-75
2023/01/30 10:09:52;;;;;;;36.67;24.15;;;;;;;7.41;75.43;100236.47;10412696;28;20045;-75
2023/01/30 10:14:58;;;;;;;36.30;24.77;;;;;;;7.27;74.26;100217.53;10412729;28;20042;-75
2023/01/30 10:20:30;;;;;;;43.17;24.40;;;;;;;7.36;73.63;100241.38;10412077;28;20050;-75
2023/01/30 10:25:33;;;;;;;35.15;23.27;;;;;;;7.15;74.96;100229.28;10412993;28;20041;-75
2023/01/30 10:30:34;;;;;;;38.30;24.73;;;;;;;6.79;76.02;100192.25;10413018;28;20045;-75
2023/01/30 10:35:38;;;;;;;39.53;25.38;;;;;;;6.86;75.67;100229.44;10412291;28;20048;-74
2023/01/30 10:40:59;;;;;;;39.20;24.33;;;;;;;6.79;74.97;100242.41;10413364;28;20048;-74
2023/01/30 10:46:09;;;;;;;37.78;23.10;;;;;;;6.14;75.06;100138.66;10413231;28;20068;-74
2023/01/30 10:51:41;;;;;;;36.25;22.13;;;;;;;6.43;75.22;100217.66;10412663;28;20056;-75
2023/01/30 10:57:03;;;;;;;34.83;22.27;;;;;;;6.30;75.57;100199.53;10413658;28;20565;-74
2023/01/30 11:02:03;;;;;;;34.92;22.08;;;;;;;6.45;76.33;100231.56;10420309;28;20038;-74
2023/01/30 11:07:05;;;;;;;32.95;21.98;;;;;;;6.25;76.71;100193.00;10419791;28;20456;-74
2023/01/30 11:12:06;;;;;;;37.47;23.67;;;;;;;6.27;76.78;100197.16;10419238;28;20075;-74
2023/01/30 11:17:16;;;;;;;39.20;23.50;;;;;;;6.23;75.49;100148.31;10419659;28;20041;-74
2023/01/30 11:22:16;;;;;;;33.65;21.67;;;;;;;6.76;76.88;100213.66;10419962;28;20045;-74
2023/01/30 11:27:30;;;;;;;37.47;23.27;;;;;;;6.75;75.25;100198.78;10419328;28;20437;-74
2023/01/30 11:32:31;;;;;;;38.92;23.70;;;;;;;6.83;76.96;100227.09;10418616;28;20390;-74
2023/01/30 11:37:36;;;;;;;42.53;25.50;;;;;;;6.76;77.57;100226.88;10418777;28;20099;-74
2023/01/30 11:42:44;;;;;;;43.40;26.17;;;;;;;6.73;77.30;100227.16;10418063;28;20142;-75
2023/01/30 11:48:00;;;;;;;43.63;23.63;;;;;;;6.17;77.54;100131.28;10418573;28;20065;-75
2023/01/30 11:53:06;;;;;;;46.63;26.25;;;;;;;6.45;78.32;100206.97;10417740;28;20037;-75
2023/01/30 11:58:08;;;;;;;39.63;24.77;;;;;;;6.18;78.67;100142.66;10417364;28;20052;-75
2023/01/30 12:03:13;;;;;;;37.50;23.58;;;;;;;6.72;78.82;100228.13;10417686;28;20572;-75
2023/01/30 12:08:22;;;;;;;;;;;;;;;6.93;78.42;100227.03;10416477;28;20045;-75
2023/01/30 12:13:44;;;;;;;40.55;22.92;;;;;;;6.32;79.67;100133.44;10417712;28;19924;-75
2023/01/30 12:19:26;;;;;;;44.42;23.70;;;;;;;6.84;79.34;100221.66;10417572;28;20041;-75
2023/01/30 12:24:49;;;;;;;36.97;23.20;;;;;;;6.31;80.02;100148.44;10415706;28;20132;-79
2023/01/30 12:30:01;;;;;;;35.80;22.35;;;;;;;6.76;80.68;100204.88;10398366;28;20050;-76
2023/01/30 12:35:14;;;;;;;39.97;24.35;;;;;;;6.54;80.45;100172.63;10402425;28;20068;-77
2023/01/30 12:40:31;;;;;;;41.07;24.57;;;;;;;6.85;81.21;100220.69;10373394;28;20078;-78
2023/01/30 12:45:40;;;;;;;42.83;24.73;;;;;;;6.81;81.22;100215.84;10404001;28;20057;-77
2023/01/30 12:50:46;;;;;;;39.55;24.02;;;;;;;6.70;81.07;100224.81;10404495;28;20045;-77
2023/01/30 12:56:17;;;;;;;38.70;22.75;;;;;;;6.58;81.67;100196.91;10374783;28;20084;-76
2023/01/30 13:01:32;;;;;;;38.95;22.60;;;;;;;6.16;81.48;100147.22;10392889;28;20049;-77
2023/01/30 13:06:54;;;;;;;44.42;26.50;;;;;;;6.62;81.78;100222.88;10377051;28;20137;-76
2023/01/30 13:12:27;;;;;;;45.05;26.00;;;;;;;6.61;82.41;100230.94;10386290;28;20159;-76
2023/01/30 13:17:43;;;;;;;41.67;25.77;;;;;;;6.62;82.27;100222.88;10412737;28;20188;-74
2023/01/30 13:23:15;;;;;;;43.13;25.88;;;;;;;6.65;82.05;100221.75;10377486;28;20065;-73
2023/01/30 13:28:20;;;;;;;37.42;24.73;;;;;;;6.43;82.01;100215.03;10372898;28;20086;-74
2023/01/30 13:33:27;;;;;;;42.05;23.58;;;;;;;6.56;82.24;100233.19;10373412;28;20095;-73
2023/01/30 13:38:30;;;;;;;43.80;24.75;;;;;;;6.49;82.17;100225.03;10372601;28;20053;-73
2023/01/30 13:43:37;;;;;;;42.85;25.30;;;;;;;6.31;81.81;100203.84;10372314;28;20525;-74
2023/01/30 13:48:38;;;;;;;41.13;25.75;;;;;;;5.91;82.33;100148.66;10387843;28;20045;-74
2023/01/30 13:54:04;;;;;;;40.78;24.90;;;;;;;6.45;81.83;100238.66;10383863;28;20477;-75
2023/01/30 13:59:34;;;;;;;37.58;23.38;;;;;;;6.42;82.63;100231.00;10385943;28;20545;-74
2023/01/30 14:04:35;;;;;;;42.88;22.92;;;;;;;5.72;81.92;100131.94;10374829;28;20050;-75
2023/01/30 14:09:39;;;;;;;42.83;21.77;;;;;;;6.21;82.37;100221.50;10402020;28;20053;-75
2023/01/30 14:14:42;;;;;;;42.53;23.73;;;;;;;6.03;82.36;100205.56;10412893;28;20038;-76
2023/01/30 14:19:54;;;;;;;38.28;23.38;;;;;;;6.20;82.64;100232.19;10413218;28;20128;-76
2023/01/30 14:25:29;;;;;;;35.65;23.85;;;;;;;6.22;82.95;100228.41;10411970;28;20052;-75
2023/01/30 14:30:30;;;;;;;34.65;22.63;;;;;;;6.10;82.46;100232.19;10389305;28;20125;-74
2023/01/30 14:35:32;;;;;;;36.03;20.73;;;;;;;6.03;82.42;100236.38;10402113;28;20130;-74
2023/01/30 14:40:36;;;;;;;35.90;21.25;;;;;;;5.77;82.92;100200.00;10380073;28;20065;-74
2023/01/30 14:45:49;;;;;;;39.13;21.77;;;;;;;5.97;82.88;100239.59;10380040;28;20504;-74
2023/01/30 14:51:11;;;;;;;45.87;26.23;;;;;;;5.97;83.00;100239.59;10379744;28;20521;-74
2023/01/30 14:56:13;;;;;;;52.42;31.42;;;;;;;5.53;83.18;100186.44;10378910;28;20502;-74
2023/01/30 15:01:13;;;;;;;52.42;29.10;;;;;;;5.47;82.64;100183.41;10407551;28;20513;-74
2023/01/30 15:06:15;;;;;;;46.90;26.40;;;;;;;5.79;83.79;100234.97;10418793;28;20085;-73
2023/01/30 15:11:27;;;;;;;60.40;30.40;;;;;;;5.71;83.51;100245.38;10419226;28;20509;-71
2023/01/30 15:16:43;;;;;;;42.85;23.92;;;;;;;5.61;83.60;100234.03;10419850;28;20033;-70
2023/01/30 15:22:11;;;;;;;52.80;30.25;;;;;;;5.34;83.66;100206.56;10419933;28;20132;-72
2023/01/30 15:27:15;;;;;;;47.35;26.33;;;;;;;5.43;83.83;100233.88;10417739;28;20409;-72
2023/01/30 15:32:26;;;;;;;44.13;24.53;;;;;;;5.39;84.05;100233.31;10417713;28;20788;-72
2023/01/30 15:37:33;;;;;;;49.45;28.90;;;;;;;5.26;84.68;100230.09;10398049;28;20093;-72
2023/01/30 15:42:35;;;;;;;48.70;26.08;;;;;;;5.22;84.53;100228.72;10373589;28;20550;-72
2023/01/30 15:47:49;;;;;;;45.47;27.00;;;;;;;5.25;84.56;100241.63;10378012;28;20069;-73
2023/01/30 15:52:52;;;;;;;50.27;27.73;;;;;;;5.19;85.01;100226.34;10366836;28;20468;-73
2023/01/30 15:58:04;;;;;;;50.57;28.17;;;;;;;4.78;85.11;100162.41;10351549;28;20030;-73
2023/01/30 16:03:12;;;;;;;45.13;25.35;;;;;;;4.98;85.07;100205.41;10354653;28;20549;-72
2023/01/30 16:08:26;;;;;;;41.15;24.35;;;;;;;4.92;85.85;100203.31;10353502;28;20042;-72
2023/01/30 16:13:27;;;;;;;;;;;;;;;5.32;85.50;100245.34;10342232;28;20046;-72
2023/01/30 16:18:34;;;;;;;29.52;20.13;;;;;;;5.15;85.23;100249.50;10350688;28;19963;-73
2023/01/30 16:23:56;;;;;;;31.65;20.27;;;;;;;4.93;86.26;100216.31;10350917;28;20050;-78
2023/01/30 16:29:01;;;;;;;33.70;19.85;;;;;;;5.00;86.23;100246.41;10351828;28;20056;-72
2023/01/30 16:34:02;;;;;;;37.10;20.00;;;;;;;4.91;85.81;100234.06;10345541;28;20050;-73
2023/01/30 16:39:29;;;;;;;36.90;20.27;;;;;;;4.98;87.17;100250.97;10349537;28;20085;-71
2023/01/30 16:44:31;;;;;;;41.72;21.75;;;;;;;4.94;86.26;100249.59;10392890;28;20149;-71
2023/01/30 16:49:34;;;;;;;32.55;20.75;;;;;;;5.02;86.15;100257.63;10374678;28;20053;-72
2023/01/30 16:54:35;;;;;;;38.40;21.70;;;;;;;4.95;86.60;100245.97;10354112;28;20047;-72
2023/01/30 16:59:36;;;;;;;37.60;20.13;;;;;;;4.44;86.43;100172.41;10336087;28;20049;-72
2023/01/30 17:04:40;;;;;;;35.15;19.02;;;;;;;4.63;86.74;100232.16;10372760;28;20045;-72
2023/01/30 17:09:45;;;;;;;41.33;19.88;;;;;;;4.74;87.53;100258.38;10347367;28;20054;-72
2023/01/30 17:14:46;;;;;;;44.72;21.65;;;;;;;4.49;87.16;100209.69;10333776;28;20054;-71
2023/01/30 17:19:47;;;;;;;32.85;20.35;;;;;;;4.54;86.88;100210.94;10346372;28;20502;-72
2023/01/30 17:24:48;;;;;;;37.53;20.50;;;;;;;4.59;86.74;100213.16;10352875;28;20449;-72
2023/01/30 17:29:48;;;;;;;30.98;20.20;;;;;;;4.93;87.08;100258.44;10345984;28;20053;-72
2023/01/30 17:34:49;;;;;;;31.15;19.38;;;;;;;4.86;87.36;100235.44;10337602;28;20038;-72
2023/01/30 17:39:50;;;;;;;37.83;21.20;;;;;;;4.94;86.82;100246.13;10355422;28;20072;-72
2023/01/30 17:44:51;;;;;;;33.70;18.77;;;;;;;4.39;87.06;100164.91;10346761;28;20065;-72
2023/01/30 17:49:54;;;;;;;37.47;21.70;;;;;;;4.22;86.94;100144.47;10355794;28;20054;-72
2023/01/30 17:54:55;;;;;;;43.97;23.10;;;;;;;4.67;87.18;100213.34;10372991;28;20046;-74
2023/01/30 17:59:55;;;;;;;36.38;20.83;;;;;;;4.46;87.56;100171.31;10358587;28;20046;-74
2023/01/30 18:04:56;;;;;;;42.03;22.00;;;;;;;4.91;87.77;100244.59;10360235;28;20468;-74
2023/01/30 18:09:57;;;;;;;35.47;20.98;;;;;;;4.84;87.70;100245.25;10349151;28;20046;-73
2023/01/30 18:14:58;;;;;;;41.28;22.42;;;;;;;4.41;87.83;100177.94;10331172;28;20049;-73
2023/01/30 18:19:59;;;;;;;43.13;24.23;;;;;;;4.72;88.11;100231.34;10364875;28;20092;-74
2023/01/30 18:25:00;;;;;;;37.15;22.02;;;;;;;4.83;88.19;100244.41;10372476;28;20076;-74
2023/01/30 18:30:02;;;;;;;46.75;23.67;;;;;;;4.82;87.97;100248.03;10371423;28;20120;-71
2023/01/30 18:35:03;;;;;;;58.78;28.42;;;;;;;4.76;87.81;100249.38;10342258;28;20133;-73
2023/01/30 18:40:04;;;;;;;53.33;23.92;;;;;;;4.46;88.26;100209.94;10331326;28;20040;-73
2023/01/30 18:45:06;;;;;;;62.28;26.65;;;;;;;4.42;88.40;100219.88;10330912;28;20054;-73
2023/01/30 18:50:07;;;;;;;70.22;36.15;;;;;;;4.23;88.81;100196.13;10330388;28;20130;-73
2023/01/30 18:55:08;;;;;;;52.58;26.90;;;;;;;3.35;88.59;100039.78;10331122;28;20096;-73
2023/01/30 19:00:09;;;;;;;52.63;27.13;;;;;;;4.39;88.71;100195.63;10330440;28;20046;-73
2023/01/30 19:05:10;;;;;;;61.10;30.55;;;;;;;3.45;88.54;100042.47;10330989;28;20039;-73
2023/01/30 19:10:15;;;;;;;50.38;26.13;;;;;;;4.43;88.81;100210.19;10331665;28;20454;-73
2023/01/30 19:15:16;;;;;;;54.88;27.92;;;;;;;4.49;88.60;100209.69;10329287;28;20105;-73
2023/01/30 19:20:17;;;;;;;59.92;29.77;;;;;;;4.33;88.45;100186.47;10335036;28;20034;-73
2023/01/30 19:25:18;;;;;;;54.40;25.98;;;;;;;3.88;89.05;100123.72;10337837;28;20092;-73
2023/01/30 19:30:18;;;;;;;58.55;29.48;;;;;;;4.28;88.67;100212.34;10338445;28;20169;-74
2023/01/30 19:35:19;;;;;;;56.00;26.02;;;;;;;3.66;88.88;100099.28;10337589;28;20038;-73
2023/01/30 19:40:20;;;;;;;51.65;26.85;;;;;;;4.26;89.08;100177.47;10337797;28;20406;-73
2023/01/30 19:45:21;;;;;;;50.03;25.05;;;;;;;3.91;89.00;100127.88;10337457;28;20062;-73
2023/01/30 19:50:22;;;;;;;69.18;28.15;;;;;;;4.17;89.04;100197.47;10337269;28;20438;-73
2023/01/30 19:55:24;;;;;;;60.42;27.13;;;;;;;3.80;89.49;100132.28;10336643;28;20084;-73
2023/01/30 20:00:25;;;;;;;43.75;21.58;;;;;;;4.08;89.35;100178.06;10352123;28;20532;-74
2023/01/30 20:05:26;;;;;;;51.30;24.08;;;;;;;4.14;89.14;100189.03;10375780;28;20074;-72
2023/01/30 20:10:26;;;;;;;36.17;21.05;;;;;;;3.20;89.17;100040.13;10376191;28;20115;-73
2023/01/30 20:15:28;;;;;;;33.22;19.95;;;;;;;3.98;89.39;100163.19;10375573;28;20034;-74
2023/01/30 20:20:28;;;;;;;43.05;22.15;;;;;;;4.07;89.20;100180.84;10375888;28;20064;-74
2023/01/30 20:25:29;;;;;;;57.10;26.17;;;;;;;3.14;89.11;100026.66;10375974;28;20042;-72
2023/01/30 20:30:30;;;;;;;53.10;25.40;;;;;;;3.62;89.49;100082.13;10375703;28;20441;-73
2023/01/30 20:35:34;;;;;;;60.50;26.92;;;;;;;3.58;89.62;100069.34;10375997;28;20088;-73
2023/01/30 20:40:34;;;;;;;54.17;26.17;;;;;;;4.09;88.96;100152.59;10375147;28;20048;-73
2023/01/30 20:45:35;;;;;;;59.78;27.70;;;;;;;3.64;89.30;100077.53;10374658;28;20054;-73
2023/01/30 20:50:36;;;;;;;133.35;44.67;;;;;;;3.99;89.74;100155.19;10374558;28;20052;-73
2023/01/30 20:55:36;;;;;;;66.40;31.05;;;;;;;3.91;90.03;100151.53;10374435;28;20046;-73
2023/01/30 21:00:38;;;;;;;56.47;27.33;;;;;;;3.86;89.93;100138.81;10375786;28;20092;-72
2023/01/30 21:05:39;;;;;;;51.25;25.25;;;;;;;3.71;91.25;100132.19;10374018;28;20418;-73
2023/01/30 21:10:45;;;;;;;40.75;21.10;;;;;;;3.08;90.74;100045.53;10374557;28;20040;-72
2023/01/30 21:15:46;;;;;;;40.35;22.40;;;;;;;3.49;90.94;100133.16;10374768;28;20129;-72
2023/01/30 21:20:48;;;;;;;46.28;23.38;;;;;;;2.89;90.68;100056.72;10374935;28;20038;-72
2023/01/30 21:25:49;;;;;;;70.28;27.88;;;;;;;3.14;90.87;100127.25;10373917;28;20042;-72
2023/01/30 21:30:50;;;;;;;83.78;39.33;;;;;;;2.86;91.03;100104.19;10373845;28;20037;-72
2023/01/30 21:35:51;;;;;;;173.00;62.13;;;;;;;2.70;91.24;100104.63;10373418;28;20042;-72
2023/01/30 21:46:15;;;;;;;118.57;48.55;;;;;;;2.29;91.65;100091.22;10373405;28;20053;-73
2023/01/30 21:51:16;;;;;;;110.50;44.00;;;;;;;2.14;91.85;100105.50;10371499;28;20057;-72
2023/01/30 21:56:16;;;;;;;129.65;49.88;;;;;;;1.69;92.20;100078.47;10372281;28;20038;-72
2023/01/30 22:01:18;;;;;;;144.40;58.38;;;;;;;1.73;92.10;100117.41;10373264;28;20052;-72
2023/01/30 22:06:20;;;;;;;84.43;37.35;;;;;;;1.39;92.31;100089.50;10373054;28;20490;-72
2023/01/30 22:11:21;;;;;;;61.10;30.65;;;;;;;1.15;92.08;100085.16;10372631;28;20049;-73
2023/01/30 22:16:25;;;;;;;55.50;26.27;;;;;;;1.17;92.51;100103.34;10371993;28;20049;-72
2023/01/30 22:21:28;;;;;;;55.63;24.87;;;;;;;0.96;92.89;100090.91;10372869;28;20052;-72
2023/01/30 22:26:29;;;;;;;52.63;25.83;;;;;;;0.82;92.80;100084.06;10371729;28;20077;-72
2023/01/30 22:31:33;;;;;;;49.97;23.58;;;;;;;0.87;92.38;100102.06;10372766;28;20065;-72
2023/01/30 22:36:34;;;;;;;68.00;27.90;;;;;;;0.53;92.69;100074.88;10372037;28;20490;-72
2023/01/30 22:41:35;;;;;;;92.43;29.75;;;;;;;0.67;92.83;100093.84;10371788;28;20038;-72
2023/01/30 22:46:38;;;;;;;70.68;31.67;;;;;;;0.70;92.86;100098.03;10371056;28;20066;-72
2023/01/30 22:51:40;;;;;;;78.37;29.33;;;;;;;-0.44;92.25;99934.69;10372311;28;20566;-72
2023/01/30 22:56:46;;;;;;;45.97;21.92;;;;;;;0.13;91.94;100043.78;10378640;28;20045;-72
2023/01/30 23:01:49;;;;;;;48.50;23.42;;;;;;;0.26;92.23;100088.13;10379645;28;20038;-72
2023/01/30 23:06:51;;;;;;;39.20;21.42;;;;;;;-0.05;92.51;100051.94;10378997;28;20045;-72
2023/01/30 23:22:44;;;;;;;104.90;37.55;;;;;;;-0.19;92.90;100077.34;10393793;28;20041;-72